Time;durP1;ratioP1;P1;durP2;ratioP2;P2;SDS_P1;SDS_P2;PMS_P1;PMS_P2;Temp;Humidity;BMP_temperature;BMP_pressure;BME280_temperature;BME280_humidity;BME280_pressure;Samples;Min_cycle;Max_cycle;Signal;HPM_P1;HPM_P2
2023/06/04 00:02:24;;;;;;;4.78;1.15;;;14.60;85.40;;;;;;5018856;28;20708;-75
2023/06/04 00:04:51;;;;;;;6.05;1.10;;;14.70;85.40;;;;;;5033390;28;20511;-75
2023/06/04 00:07:19;;;;;;;2.40;1.00;;;14.60;85.70;;;;;;5016313;28;22086;-75
2023/06/04 00:09:46;;;;;;;5.20;0.93;;;14.60;85.30;;;;;;5001095;28;20079;-75
2023/06/04 00:12:14;;;;;;;2.10;0.75;;;14.50;86.50;;;;;;5031007;28;20777;-75
2023/06/04 00:14:42;;;;;;;3.65;0.82;;;14.50;87.00;;;;;;5025743;28;20052;-75
2023/06/04 00:17:10;;;;;;;2.20;0.90;;;14.50;86.60;;;;;;5043050;28;20053;-75
2023/06/04 00:19:40;;;;;;;3.35;0.80;;;14.50;85.60;;;;;;5017871;28;20055;-75
2023/06/04 00:22:08;;;;;;;4.20;0.80;;;14.50;85.20;;;;;;5008035;28;20065;-75
2023/06/04 00:24:39;;;;;;;4.10;0.85;;;14.50;84.20;;;;;;5014446;28;20037;-75
2023/06/04 00:27:09;;;;;;;2.92;1.08;;;14.40;84.40;;;;;;5033261;28;20144;-75
2023/06/04 00:29:36;;;;;;;3.58;0.85;;;14.40;84.60;;;;;;4985929;28;20648;-75
2023/06/04 00:32:04;;;;;;;4.18;1.05;;;14.40;84.20;;;;;;4960874;28;20476;-75
2023/06/04 00:34:31;;;;;;;2.20;0.82;;;14.40;85.60;;;;;;4990071;28;20072;-75
2023/06/04 00:37:01;;;;;;;3.28;1.05;;;14.40;85.90;;;;;;4968162;28;20052;-75
2023/06/04 00:39:29;;;;;;;3.10;0.95;;;14.30;85.40;;;;;;4965087;28;20092;-75
2023/06/04 00:41:56;;;;;;;3.90;0.75;;;14.30;85.60;;;;;;5000147;28;20049;-75
2023/06/04 00:44:25;;;;;;;3.53;1.15;;;14.20;85.60;;;;;;4975009;28;20659;-75
2023/06/04 00:46:53;;;;;;;4.95;1.35;;;14.20;86.30;;;;;;4989183;28;20144;-75
2023/06/04 00:49:20;;;;;;;3.20;1.25;;;14.20;86.50;;;;;;4990877;28;20072;-75
2023/06/04 00:51:49;;;;;;;6.55;0.93;;;14.10;86.90;;;;;;4994192;28;20064;-75
2023/06/04 00:54:17;;;;;;;8.32;1.25;;;14.10;86.90;;;;;;4976835;28;20927;-75
2023/06/04 00:56:45;;;;;;;4.95;1.20;;;14.10;87.00;;;;;;4977038;28;20045;-75
2023/06/04 00:59:12;;;;;;;6.10;1.33;;;14.10;87.70;;;;;;4960231;28;20053;-74
2023/06/04 01:01:55;;;;;;;2.58;1.50;;;14.10;88.30;;;;;;5008518;28;21176;-75
2023/06/04 01:04:45;;;;;;;3.83;1.10;;;14.10;88.30;;;;;;5021208;28;20466;-74
2023/06/04 01:07:15;;;;;;;2.35;1.00;;;14.10;89.80;;;;;;5012605;28;20075;-74
2023/06/04 01:09:45;;;;;;;3.83;1.27;;;14.10;89.30;;;;;;4999200;28;20090;-74
2023/06/04 01:12:13;;;;;;;2.97;0.70;;;14.00;87.70;;;;;;5028181;28;20048;-74
2023/06/04 01:14:40;;;;;;;2.25;0.82;;;14.10;86.20;;;;;;5013401;28;22287;-74
2023/06/04 01:17:28;;;;;;;3.78;0.73;;;14.00;85.70;;;;;;5016231;28;20723;-74
2023/06/04 01:20:18;;;;;;;3.40;0.85;;;14.00;84.90;;;;;;5010437;28;20808;-74
2023/06/04 01:22:59;;;;;;;4.28;0.90;;;14.00;85.20;;;;;;5026194;28;20060;-74
2023/06/04 01:25:38;;;;;;;4.25;0.88;;;14.10;85.80;;;;;;5018900;28;22545;-74
2023/06/04 01:28:07;;;;;;;4.63;0.80;;;14.10;85.10;;;;;;4994984;28;20499;-75
2023/06/04 01:30:42;;;;;;;4.90;0.55;;;14.10;85.30;;;;;;5008825;28;20460;-75
2023/06/04 01:33:11;;;;;;;2.28;0.70;;;14.10;86.60;;;;;;5007059;28;20049;-74
2023/06/04 01:35:39;;;;;;;2.97;0.80;;;14.10;86.20;;;;;;5013778;28;20049;-74
2023/06/04 01:38:07;;;;;;;4.90;0.75;;;14.00;85.60;;;;;;4998842;28;20041;-75
2023/06/04 01:40:34;;;;;;;4.03;0.80;;;14.00;84.60;;;;;;5012599;28;20048;-75
2023/06/04 01:43:02;;;;;;;2.65;0.60;;;13.90;86.60;;;;;;5025270;28;20110;-75
2023/06/04 01:45:29;;;;;;;1.73;0.50;;;14.00;86.10;;;;;;5013871;28;20052;-75
2023/06/04 01:47:56;;;;;;;2.83;0.75;;;14.00;86.10;;;;;;5009737;28;20055;-75
2023/06/04 01:50:24;;;;;;;2.72;0.82;;;13.90;86.90;;;;;;5025695;28;20765;-75
2023/06/04 01:52:51;;;;;;;3.50;0.73;;;13.80;87.10;;;;;;4993992;28;20089;-75
2023/06/04 01:55:18;;;;;;;3.97;0.80;;;13.70;88.30;;;;;;5031468;28;20060;-75
2023/06/04 01:57:50;;;;;;;7.10;0.65;;;13.80;88.10;;;;;;5042196;28;20045;-75
2023/06/04 02:00:17;;;;;;;4.13;0.95;;;13.80;88.00;;;;;;5008717;28;20068;-75
2023/06/04 02:02:46;;;;;;;4.07;0.63;;;13.80;88.40;;;;;;4997136;28;20867;-74
2023/06/04 02:05:14;;;;;;;2.90;0.85;;;13.80;88.10;;;;;;5040382;28;20104;-74
2023/06/04 02:07:44;;;;;;;3.95;1.20;;;13.90;88.40;;;;;;5010140;28;20063;-74
2023/06/04 02:10:16;;;;;;;2.47;0.82;;;13.80;89.40;;;;;;5010162;28;20068;-74
2023/06/04 02:13:02;;;;;;;4.23;0.87;;;13.80;88.70;;;;;;5025086;28;20048;-74
2023/06/04 02:15:31;;;;;;;2.10;0.63;;;13.70;88.70;;;;;;5021316;28;20041;-75
2023/06/04 02:18:15;;;;;;;4.03;0.60;;;13.70;88.30;;;;;;5043374;28;20163;-75
2023/06/04 02:20:48;;;;;;;2.28;0.80;;;13.70;87.70;;;;;;5019357;28;20627;-74
2023/06/04 02:23:16;;;;;;;3.15;0.60;;;13.70;88.20;;;;;;5027066;28;20189;-75
2023/06/04 02:25:45;;;;;;;1.58;0.52;;;13.70;88.10;;;;;;4995767;28;20052;-75
2023/06/04 02:28:13;;;;;;;3.83;0.77;;;13.70;88.80;;;;;;5013050;28;20045;-75
2023/06/04 02:30:40;;;;;;;1.92;0.60;;;13.70;89.10;;;;;;5025794;28;20048;-75
2023/06/04 02:33:09;;;;;;;4.43;1.20;;;13.70;89.50;;;;;;5007176;28;20071;-75
2023/06/04 02:35:37;;;;;;;2.03;0.93;;;13.70;89.60;;;;;;5026886;28;20101;-74
2023/06/04 02:38:05;;;;;;;3.22;0.65;;;13.60;90.00;;;;;;5026295;28;20110;-74
2023/06/04 02:40:32;;;;;;;2.30;0.63;;;13.60;90.10;;;;;;4995237;28;20067;-74
2023/06/04 02:42:59;;;;;;;2.53;0.75;;;13.60;90.50;;;;;;5025882;28;22735;-75
2023/06/04 02:45:26;;;;;;;2.00;0.82;;;13.60;90.70;;;;;;5042881;28;20149;-75
2023/06/04 02:47:53;;;;;;;4.78;0.60;;;13.60;90.30;;;;;;5006608;28;20064;-75
2023/06/04 02:50:20;;;;;;;3.67;0.80;;;13.50;90.50;;;;;;5027691;28;20723;-74
2023/06/04 02:52:47;;;;;;;5.82;1.40;;;13.50;90.20;;;;;;5014603;28;20779;-74
2023/06/04 02:55:15;;;;;;;4.95;0.70;;;13.60;89.30;;;;;;5003377;28;20087;-74
2023/06/04 02:57:42;;;;;;;2.22;0.80;;;13.60;89.70;;;;;;5032574;28;20281;-74
2023/06/04 03:00:13;;;;;;;3.92;1.05;;;13.60;90.20;;;;;;5037689;28;20057;-74
2023/06/04 03:02:46;;;;;;;4.40;0.80;;;13.60;89.60;;;;;;5020047;28;20052;-74
2023/06/04 03:05:17;;;;;;;3.15;0.70;;;13.60;87.60;;;;;;5011998;28;20616;-74
2023/06/04 03:07:46;;;;;;;5.75;1.25;;;13.60;88.30;;;;;;5021695;28;20060;-74
2023/06/04 03:10:15;;;;;;;4.47;0.82;;;13.60;89.20;;;;;;5013100;28;20543;-74
2023/06/04 03:12:42;;;;;;;3.45;0.95;;;13.70;88.90;;;;;;5011588;28;20040;-75
2023/06/04 03:15:10;;;;;;;3.97;0.93;;;13.70;87.70;;;;;;5018785;28;20511;-75
2023/06/04 03:17:37;;;;;;;4.43;0.95;;;13.60;88.70;;;;;;5015785;28;20049;-75
2023/06/04 03:20:07;;;;;;;4.25;0.70;;;13.60;89.80;;;;;;5029981;28;20063;-75
2023/06/04 03:22:35;;;;;;;2.55;1.13;;;13.70;90.00;;;;;;5015501;28;20403;-75
2023/06/04 03:25:03;;;;;;;3.50;0.80;;;13.70;90.20;;;;;;5036131;28;20495;-75
2023/06/04 03:27:32;;;;;;;4.72;1.42;;;13.60;90.30;;;;;;5029496;28;20049;-75
2023/06/04 03:30:00;;;;;;;2.85;0.88;;;13.60;90.30;;;;;;5014588;28;20053;-75
2023/06/04 03:32:33;;;;;;;3.50;0.60;;;13.50;90.60;;;;;;5030049;28;20415;-75
2023/06/04 03:35:01;;;;;;;3.20;1.00;;;13.60;90.90;;;;;;5030295;28;20052;-75
2023/06/04 03:37:28;;;;;;;2.42;1.00;;;13.60;90.80;;;;;;5005042;28;20045;-75
2023/06/04 03:39:56;;;;;;;3.00;1.10;;;13.70;91.00;;;;;;5034378;28;20052;-75
2023/06/04 03:42:23;;;;;;;4.18;0.90;;;13.70;90.40;;;;;;5029798;28;23545;-75
2023/06/04 03:44:50;;;;;;;2.95;0.85;;;13.80;90.10;;;;;;5022413;28;20048;-75
2023/06/04 03:47:19;;;;;;;5.15;1.33;;;13.70;90.30;;;;;;5017963;28;20178;-75
2023/06/04 03:49:46;;;;;;;3.50;0.85;;;13.80;90.80;;;;;;5030566;28;20052;-75
2023/06/04 03:52:13;;;;;;;3.78;0.70;;;13.80;90.60;;;;;;5006446;28;22362;-74
2023/06/04 03:54:41;;;;;;;5.03;0.80;;;13.80;90.90;;;;;;5014637;28;20254;-75
2023/06/04 03:57:09;;;;;;;2.17;0.63;;;13.90;91.10;;;;;;5010789;28;20511;-75
2023/06/04 03:59:36;;;;;;;2.58;0.90;;;13.90;90.70;;;;;;5027142;28;20045;-75
2023/06/04 04:02:05;;;;;;;3.40;0.90;;;14.00;91.40;;;;;;5018607;28;20048;-75
2023/06/04 04:04:33;;;;;;;3.88;1.05;;;14.10;90.90;;;;;;5027272;28;20708;-75
2023/06/04 04:07:02;;;;;;;4.82;0.85;;;14.20;90.10;;;;;;5005335;28;20159;-75
2023/06/04 04:09:29;;;;;;;4.88;1.17;;;14.30;88.90;;;;;;5020227;28;20049;-75
2023/06/04 04:11:56;;;;;;;2.45;0.88;;;14.30;88.70;;;;;;4992760;28;20595;-75
2023/06/04 04:14:24;;;;;;;3.20;0.60;;;14.30;88.60;;;;;;5028656;28;20531;-75
2023/06/04 04:16:51;;;;;;;4.38;0.85;;;14.20;86.70;;;;;;5001961;28;20049;-75
2023/06/04 04:19:20;;;;;;;2.95;0.80;;;14.20;85.90;;;;;;5000892;28;20151;-75
2023/06/04 04:21:48;;;;;;;2.83;0.60;;;14.30;86.40;;;;;;5013825;28;20057;-75
2023/06/04 04:24:24;;;;;;;5.35;0.80;;;14.30;87.60;;;;;;5027261;28;20106;-75
2023/06/04 04:26:53;;;;;;;3.33;0.65;;;14.30;88.60;;;;;;4996744;28;20535;-75
2023/06/04 04:29:24;;;;;;;3.25;0.88;;;14.40;87.70;;;;;;5017704;28;20060;-75
2023/06/04 04:31:53;;;;;;;3.75;0.80;;;14.30;88.40;;;;;;5011223;28;20517;-75
2023/06/04 04:34:24;;;;;;;2.05;0.70;;;14.30;89.60;;;;;;5008305;28;22216;-75
2023/06/04 04:36:52;;;;;;;3.90;0.82;;;14.30;89.00;;;;;;5012164;28;20488;-75
2023/06/04 04:39:24;;;;;;;1.83;0.80;;;14.40;88.30;;;;;;5015206;28;20045;-75
2023/06/04 04:41:55;;;;;;;4.90;0.93;;;14.50;87.30;;;;;;5004358;28;20045;-75
2023/06/04 04:44:22;;;;;;;3.70;1.02;;;14.60;87.80;;;;;;5026108;28;20068;-75
2023/06/04 04:46:49;;;;;;;5.45;0.90;;;14.70;86.60;;;;;;5020442;28;20820;-75
2023/06/04 04:49:17;;;;;;;2.58;1.05;;;14.80;85.90;;;;;;5022293;28;22524;-75
2023/06/04 04:51:44;;;;;;;3.63;0.93;;;14.80;85.90;;;;;;5026021;28;20051;-75
2023/06/04 04:54:12;;;;;;;3.53;0.95;;;14.90;85.90;;;;;;5029752;28;20048;-75
2023/06/04 04:56:40;;;;;;;3.03;0.98;;;15.00;86.00;;;;;;5014989;28;20049;-75
2023/06/04 04:59:07;;;;;;;4.40;0.90;;;15.00;85.80;;;;;;4993005;28;20037;-75
2023/06/04 05:01:35;;;;;;;2.38;0.90;;;15.20;85.20;;;;;;4997965;28;20040;-75
2023/06/04 05:04:03;;;;;;;2.97;0.90;;;15.20;84.00;;;;;;5024025;28;20170;-75
2023/06/04 05:06:33;;;;;;;3.22;0.70;;;15.20;83.00;;;;;;5018204;28;20139;-74
2023/06/04 05:09:01;;;;;;;2.58;0.63;;;15.30;83.00;;;;;;5008134;28;20048;-74
2023/06/04 05:11:28;;;;;;;1.90;0.40;;;15.20;81.00;;;;;;5012919;28;20059;-75
2023/06/04 05:13:55;;;;;;;2.08;0.35;;;15.30;80.70;;;;;;5030101;28;20047;-75
2023/06/04 05:16:23;;;;;;;3.05;0.60;;;15.20;79.60;;;;;;5029132;28;20179;-75
2023/06/04 05:18:51;;;;;;;1.30;0.40;;;15.20;79.30;;;;;;5026304;28;20585;-75
2023/06/04 05:21:23;;;;;;;1.73;0.52;;;15.30;80.50;;;;;;5017105;28;20082;-74
2023/06/04 05:23:56;;;;;;;2.35;0.40;;;15.40;80.60;;;;;;4994583;28;20111;-75
2023/06/04 05:26:28;;;;;;;2.03;0.30;;;15.40;80.00;;;;;;5010250;28;20044;-75
2023/06/04 05:28:59;;;;;;;2.20;0.40;;;15.40;77.10;;;;;;5023239;28;20397;-74
2023/06/04 05:31:33;;;;;;;1.67;0.40;;;15.30;76.90;;;;;;5018522;28;22449;-74
2023/06/04 05:34:06;;;;;;;3.17;0.68;;;15.30;75.90;;;;;;5027045;28;20496;-75
2023/06/04 05:36:37;;;;;;;1.50;0.43;;;15.30;76.50;;;;;;5008627;28;20528;-75
2023/06/04 05:39:06;;;;;;;3.00;0.60;;;15.40;76.90;;;;;;4996985;28;20053;-74
2023/06/04 05:41:43;;;;;;;1.55;0.50;;;15.40;76.00;;;;;;4991129;28;20104;-75
2023/06/04 05:44:10;;;;;;;1.88;0.40;;;15.40;77.30;;;;;;5017811;28;20063;-75
2023/06/04 05:46:38;;;;;;;3.65;1.00;;;15.50;77.90;;;;;;5026212;28;20130;-75
2023/06/04 05:49:05;;;;;;;2.33;0.77;;;15.50;75.70;;;;;;4999569;28;20048;-74
2023/06/04 05:51:32;;;;;;;2.63;0.60;;;15.50;76.00;;;;;;5011945;28;20045;-75
2023/06/04 05:54:00;;;;;;;2.85;0.45;;;15.50;75.20;;;;;;5022836;28;20057;-75
2023/06/04 05:56:27;;;;;;;1.50;0.50;;;15.70;76.80;;;;;;5016591;28;20049;-75
2023/06/04 05:58:57;;;;;;;1.58;0.30;;;15.80;75.60;;;;;;5000294;28;20120;-75
2023/06/04 06:01:25;;;;;;;4.25;0.70;;;15.90;74.70;;;;;;5014114;28;20419;-75
2023/06/04 06:03:53;;;;;;;2.90;0.43;;;16.00;75.30;;;;;;5042832;28;20577;-76
2023/06/04 06:06:21;;;;;;;1.95;0.40;;;16.10;75.70;;;;;;5025333;28;20603;-75
2023/06/04 06:08:52;;;;;;;2.65;0.52;;;16.20;75.40;;;;;;5019215;28;20060;-75
2023/06/04 06:11:21;;;;;;;1.33;0.40;;;16.10;74.30;;;;;;4996942;28;20317;-75
2023/06/04 06:13:48;;;;;;;1.60;0.45;;;16.10;74.50;;;;;;5025115;28;20132;-75
2023/06/04 06:16:16;;;;;;;2.05;0.50;;;16.20;75.60;;;;;;5009498;28;20139;-75
2023/06/04 06:18:45;;;;;;;2.20;0.50;;;16.30;76.40;;;;;;5023637;28;20527;-76
2023/06/04 06:21:12;;;;;;;1.17;0.40;;;16.40;77.10;;;;;;5005924;28;20068;-76
2023/06/04 06:23:40;;;;;;;1.08;0.52;;;16.50;77.60;;;;;;5029827;28;20515;-76
2023/06/04 06:26:08;;;;;;;2.45;0.40;;;16.50;76.80;;;;;;5013643;28;20056;-75
2023/06/04 06:28:43;;;;;;;2.47;0.50;;;16.60;76.10;;;;;;5028719;28;20044;-75
2023/06/04 06:31:11;;;;;;;1.25;0.40;;;16.70;76.00;;;;;;5013000;28;20049;-74
2023/06/04 06:33:41;;;;;;;2.33;0.50;;;16.70;75.60;;;;;;5017778;28;20041;-76
2023/06/04 06:36:12;;;;;;;1.40;0.43;;;16.80;76.00;;;;;;5018750;28;20049;-76
2023/06/04 06:38:40;;;;;;;2.90;0.30;;;17.40;75.40;;;;;;5035994;28;20523;-75
2023/06/04 06:41:07;;;;;;;1.30;0.30;;;17.90;73.20;;;;;;5024673;28;20045;-75
2023/06/04 06:43:35;;;;;;;0.90;0.30;;;18.00;71.40;;;;;;5015457;28;20519;-74
2023/06/04 06:46:02;;;;;;;1.88;0.30;;;18.00;71.70;;;;;;5018893;28;20082;-76
2023/06/04 06:48:29;;;;;;;2.70;0.30;;;18.00;71.30;;;;;;5023401;28;20056;-75
2023/06/04 06:50:56;;;;;;;2.13;0.30;;;18.00;72.30;;;;;;5022731;28;20045;-75
2023/06/04 06:53:23;;;;;;;2.20;0.22;;;18.00;72.00;;;;;;5030025;28;20048;-76
2023/06/04 06:55:50;;;;;;;3.75;0.68;;;18.20;72.20;;;;;;5012002;28;20048;-75
2023/06/04 06:58:17;;;;;;;1.75;0.30;;;18.50;70.50;;;;;;5016657;28;20067;-76
2023/06/04 07:00:45;;;;;;;1.70;0.28;;;18.90;69.80;;;;;;5002546;28;20408;-75
2023/06/04 07:03:12;;;;;;;1.88;0.30;;;19.20;68.00;;;;;;5013145;28;20059;-75
2023/06/04 07:05:39;;;;;;;1.38;0.30;;;19.40;66.80;;;;;;5016748;28;20606;-75
2023/06/04 07:08:06;;;;;;;1.20;0.47;;;19.60;66.40;;;;;;5000242;28;20052;-75
2023/06/04 07:10:33;;;;;;;1.55;0.40;;;19.70;66.60;;;;;;5015053;28;20550;-75
2023/06/04 07:13:00;;;;;;;1.55;0.35;;;19.70;64.20;;;;;;5017061;28;22324;-75
2023/06/04 07:15:28;;;;;;;1.75;0.40;;;19.90;66.50;;;;;;5029232;28;20049;-76
2023/06/04 07:17:55;;;;;;;2.28;0.43;;;20.10;67.20;;;;;;5015647;28;20044;-75
2023/06/04 07:20:22;;;;;;;1.77;0.25;;;20.10;67.30;;;;;;5015110;28;20053;-75
2023/06/04 07:22:49;;;;;;;2.90;0.40;;;20.20;67.20;;;;;;5015581;28;20068;-75
2023/06/04 07:25:16;;;;;;;1.98;0.40;;;20.30;65.60;;;;;;5031146;28;20784;-75
2023/06/04 07:27:43;;;;;;;0.80;0.32;;;20.50;66.90;;;;;;5011884;28;20419;-76
2023/06/04 07:30:11;;;;;;;1.92;0.45;;;20.60;65.30;;;;;;5019729;28;20047;-75
2023/06/04 07:32:38;;;;;;;2.50;0.30;;;20.70;65.50;;;;;;5034837;28;20628;-76
2023/06/04 07:35:05;;;;;;;2.17;0.60;;;20.80;64.60;;;;;;5031450;28;20411;-75
2023/06/04 07:37:33;;;;;;;2.70;0.30;;;21.00;64.30;;;;;;5004166;28;20041;-75
2023/06/04 07:40:00;;;;;;;1.83;0.43;;;21.10;64.20;;;;;;5035502;28;20475;-75
2023/06/04 07:42:27;;;;;;;0.60;0.30;;;21.10;64.00;;;;;;5006446;28;20484;-75
2023/06/04 07:44:54;;;;;;;2.67;0.40;;;21.10;62.90;;;;;;5034531;28;20176;-76
2023/06/04 07:47:22;;;;;;;1.58;0.30;;;21.20;63.90;;;;;;5014572;28;20134;-76
2023/06/04 07:49:49;;;;;;;1.08;0.20;;;21.40;63.70;;;;;;5047552;28;20522;-75
2023/06/04 07:52:28;;;;;;;1.17;0.20;;;21.50;62.80;;;;;;5028384;28;20500;-75
2023/06/04 07:54:56;;;;;;;1.35;0.30;;;21.20;62.50;;;;;;5046586;28;20029;-75
2023/06/04 07:57:23;;;;;;;3.22;0.30;;;21.20;61.40;;;;;;5042969;28;20045;-75
2023/06/04 07:59:51;;;;;;;1.27;0.20;;;21.60;61.80;;;;;;5030854;28;20049;-75
2023/06/04 08:02:19;;;;;;;1.70;0.22;;;21.50;59.30;;;;;;5023154;28;20052;-75
2023/06/04 08:04:47;;;;;;;2.00;0.20;;;21.70;60.20;;;;;;5016656;28;22174;-75
2023/06/04 08:07:14;;;;;;;1.55;0.20;;;21.80;60.60;;;;;;5022126;28;20059;-75
2023/06/04 08:09:43;;;;;;;2.47;0.30;;;21.90;60.60;;;;;;5019246;28;20055;-75
2023/06/04 08:12:11;;;;;;;1.38;0.45;;;21.60;57.10;;;;;;5017261;28;21231;-74
2023/06/04 08:14:38;;;;;;;1.63;0.28;;;21.60;58.10;;;;;;5018045;28;20905;-75
2023/06/04 08:17:05;;;;;;;2.05;0.50;;;21.90;57.60;;;;;;5004211;28;20049;-75
2023/06/04 08:19:32;;;;;;;2.50;0.30;;;21.70;58.10;;;;;;5015271;28;20045;-75
2023/06/04 08:22:00;;;;;;;3.17;0.35;;;21.80;59.80;;;;;;5022464;28;20057;-75
2023/06/04 08:24:27;;;;;;;2.40;0.40;;;22.10;59.40;;;;;;5016442;28;20048;-75
2023/06/04 08:26:54;;;;;;;0.95;0.28;;;22.10;57.90;;;;;;5029344;28;20055;-74
2023/06/04 08:29:21;;;;;;;2.88;0.30;;;22.20;59.50;;;;;;5020852;28;20419;-75
2023/06/04 08:31:51;;;;;;;1.73;0.25;;;22.40;58.80;;;;;;5008980;28;20099;-75
2023/06/04 08:34:18;;;;;;;3.22;0.45;;;22.40;57.30;;;;;;5016575;28;22316;-76
2023/06/04 08:36:46;;;;;;;2.05;0.50;;;22.40;58.40;;;;;;5016320;28;20169;-76
2023/06/04 08:39:13;;;;;;;0.80;0.28;;;22.70;58.50;;;;;;5030849;28;20113;-75
2023/06/04 08:41:51;;;;;;;3.30;0.38;;;22.80;58.70;;;;;;5015820;28;20051;-75
2023/06/04 08:44:18;;;;;;;4.90;0.43;;;22.80;57.60;;;;;;5030406;28;20057;-75
2023/06/04 08:46:50;;;;;;;2.50;0.50;;;22.90;59.10;;;;;;5015157;28;20922;-75
2023/06/04 08:49:20;;;;;;;1.42;0.30;;;22.70;58.80;;;;;;5015890;28;20098;-75
2023/06/04 08:51:48;;;;;;;2.08;0.40;;;22.30;57.20;;;;;;5022093;28;20052;-74
2023/06/04 08:54:17;;;;;;;1.30;0.40;;;22.30;58.80;;;;;;5029872;28;20045;-76
2023/06/04 08:56:45;;;;;;;3.08;0.35;;;22.50;58.70;;;;;;5011524;28;20085;-75
2023/06/04 08:59:13;;;;;;;2.30;0.40;;;22.60;59.90;;;;;;5050167;28;20050;-75
2023/06/04 09:01:44;;;;;;;2.95;0.30;;;22.40;58.70;;;;;;5057522;28;20080;-75
2023/06/04 09:04:12;;;;;;;3.15;0.55;;;22.10;59.40;;;;;;5024642;28;20102;-74
2023/06/04 09:06:41;;;;;;;4.10;0.40;;;22.00;59.70;;;;;;5013662;28;20067;-78
2023/06/04 09:09:12;;;;;;;6.65;2.42;;;21.90;60.70;;;;;;5027045;28;20098;-79
2023/06/04 09:11:46;;;;;;;1.98;0.70;;;21.80;59.90;;;;;;5056436;28;20044;-79
2023/06/04 09:14:18;;;;;;;1.75;0.73;;;21.60;59.50;;;;;;5021051;28;20052;-76
2023/06/04 09:16:50;;;;;;;2.28;0.35;;;21.50;60.80;;;;;;5005971;28;22355;-78
2023/06/04 09:19:18;;;;;;;;;;;21.40;59.60;;;;;;5018358;28;20127;-78
2023/06/04 09:21:52;;;;;;;1.63;0.38;;;21.30;61.60;;;;;;5043702;28;19929;-79
2023/06/04 09:24:20;;;;;;;2.17;0.50;;;21.30;61.70;;;;;;5014756;28;20057;-79
2023/06/04 09:26:48;;;;;;;2.05;0.52;;;21.20;61.90;;;;;;5005778;28;20063;-79
2023/06/04 09:29:16;;;;;;;3.33;0.90;;;21.10;61.60;;;;;;5028847;28;20048;-79
2023/06/04 09:31:47;;;;;;;1.95;0.70;;;21.00;61.80;;;;;;5028628;28;20051;-79
2023/06/04 09:34:14;;;;;;;1.70;0.40;;;21.00;62.80;;;;;;5014084;28;20045;-79
2023/06/04 09:36:42;;;;;;;5.95;2.58;;;20.90;66.00;;;;;;5018361;28;20037;-79
2023/06/04 09:39:16;;;;;;;2.65;1.05;;;20.90;66.40;;;;;;5012537;28;20078;-80
2023/06/04 09:41:44;;;;;;;2.33;0.50;;;20.80;66.70;;;;;;5017793;28;20554;-79
2023/06/04 09:44:11;;;;;;;3.47;0.30;;;20.80;66.50;;;;;;5015851;28;20059;-80
2023/06/04 09:46:39;;;;;;;1.55;0.28;;;20.80;67.40;;;;;;5023644;28;20064;-79
2023/06/04 09:49:06;;;;;;;3.20;0.88;;;20.80;67.80;;;;;;5013708;28;20041;-78
2023/06/04 09:51:33;;;;;;;1.95;0.38;;;20.70;67.90;;;;;;5010376;28;20044;-79
2023/06/04 09:54:03;;;;;;;3.03;0.63;;;20.70;67.30;;;;;;5036079;28;20044;-79
2023/06/04 09:56:40;;;;;;;2.63;0.38;;;20.60;67.30;;;;;;5038355;28;20048;-79
2023/06/04 09:59:09;;;;;;;4.97;0.60;;;20.50;67.20;;;;;;5036973;28;20507;-79
2023/06/04 10:01:43;;;;;;;3.30;0.60;;;20.50;67.40;;;;;;5023539;28;20056;-79
2023/06/04 10:04:13;;;;;;;2.28;0.32;;;20.50;67.20;;;;;;5021783;28;20048;-79
2023/06/04 10:06:41;;;;;;;3.10;0.40;;;20.40;66.10;;;;;;5024802;28;22749;-79
2023/06/04 10:09:09;;;;;;;1.30;0.40;;;20.50;66.80;;;;;;5033797;28;20040;-79
2023/06/04 10:11:55;;;;;;;2.22;0.57;;;20.50;66.90;;;;;;5051778;28;20040;-79
2023/06/04 10:14:25;;;;;;;1.63;0.40;;;20.40;65.80;;;;;;5031132;28;20048;-79
2023/06/04 10:16:53;;;;;;;3.55;0.40;;;20.40;66.10;;;;;;5024448;28;20048;-79
2023/06/04 10:19:21;;;;;;;1.45;0.50;;;20.40;67.30;;;;;;5022195;28;20167;-80
2023/06/04 10:21:48;;;;;;;2.55;0.40;;;20.40;67.70;;;;;;5005610;28;20442;-79
2023/06/04 10:24:16;;;;;;;1.58;0.57;;;20.30;66.50;;;;;;5026597;28;20044;-80
2023/06/04 10:26:44;;;;;;;1.08;0.30;;;20.30;66.30;;;;;;5010051;28;20064;-79
2023/06/04 10:29:13;;;;;;;2.40;0.30;;;20.30;66.40;;;;;;4960772;28;20122;-80
2023/06/04 10:31:41;;;;;;;1.65;0.40;;;20.30;65.90;;;;;;4951933;28;20056;-80
2023/06/04 10:34:08;;;;;;;3.35;0.70;;;20.20;65.70;;;;;;4964729;28;20142;-80
2023/06/04 10:36:44;;;;;;;1.50;0.60;;;20.20;65.90;;;;;;4968335;28;20539;-80
2023/06/04 10:39:11;;;;;;;2.88;0.35;;;20.20;66.90;;;;;;4964973;28;20143;-80
2023/06/04 10:41:39;;;;;;;1.92;0.40;;;20.20;66.40;;;;;;4952700;28;20064;-79
2023/06/04 10:44:06;;;;;;;2.50;0.40;;;20.20;65.20;;;;;;4985435;28;20057;-79
2023/06/04 10:46:40;;;;;;;1.33;0.30;;;20.20;64.90;;;;;;4992172;28;20077;-79
2023/06/04 10:49:14;;;;;;;2.38;0.60;;;20.20;65.90;;;;;;4960784;28;20532;-79
2023/06/04 10:51:43;;;;;;;1.98;0.60;;;20.20;66.30;;;;;;4966639;28;20046;-75
2023/06/04 10:54:21;;;;;;;2.05;0.70;;;20.30;65.90;;;;;;4967227;28;20053;-79
2023/06/04 10:56:48;;;;;;;2.55;0.40;;;20.20;66.10;;;;;;4994649;28;20041;-77
2023/06/04 10:59:17;;;;;;;4.32;0.57;;;20.20;64.30;;;;;;4966859;28;20724;-75
2023/06/04 11:01:45;;;;;;;2.30;0.32;;;20.20;64.70;;;;;;5012301;28;20514;-75
2023/06/04 11:04:24;;;;;;;2.58;0.65;;;20.30;65.70;;;;;;5011261;28;20048;-74
2023/06/04 11:07:10;;;;;;;2.53;0.38;;;20.30;64.20;;;;;;5031023;28;20649;-75
2023/06/04 11:09:47;;;;;;;1.90;0.50;;;20.20;64.70;;;;;;5035172;28;20124;-75
2023/06/04 11:12:15;;;;;;;1.80;0.38;;;20.30;65.00;;;;;;5013928;28;20898;-74
2023/06/04 11:14:57;;;;;;;2.20;0.50;;;20.20;65.60;;;;;;5010852;28;20048;-76
2023/06/04 11:17:24;;;;;;;1.48;0.40;;;20.20;65.90;;;;;;5013005;28;20044;-76
2023/06/04 11:19:55;;;;;;;2.40;0.50;;;20.20;65.90;;;;;;5032818;28;20763;-75
2023/06/04 11:22:23;;;;;;;2.07;0.60;;;20.20;65.30;;;;;;5017799;28;20061;-75
2023/06/04 11:24:58;;;;;;;2.47;1.00;;;20.20;66.70;;;;;;5019737;28;20781;-76
2023/06/04 11:27:26;;;;;;;3.60;1.00;;;20.20;69.20;;;;;;5011592;28;20052;-75
2023/06/04 11:30:02;;;;;;;3.83;0.90;;;20.30;71.20;;;;;;5022410;28;20060;-75
2023/06/04 11:32:30;;;;;;;2.70;0.47;;;20.20;70.50;;;;;;5012662;28;20051;-77
2023/06/04 11:35:10;;;;;;;2.75;0.40;;;20.20;71.10;;;;;;5020596;28;20052;-77
2023/06/04 11:37:38;;;;;;;2.00;0.50;;;20.30;70.80;;;;;;5008122;28;20056;-76
2023/06/04 11:40:15;;;;;;;3.28;0.60;;;20.20;68.70;;;;;;5014708;28;20391;-75
2023/06/04 11:42:44;;;;;;;1.67;0.52;;;20.10;67.20;;;;;;5009647;28;20059;-76
2023/06/04 11:45:17;;;;;;;4.47;0.90;;;20.10;68.40;;;;;;5027882;28;20049;-77
2023/06/04 11:47:48;;;;;;;1.88;0.50;;;20.20;68.20;;;;;;5024113;28;20875;-76
2023/06/04 11:50:17;;;;;;;5.78;0.80;;;20.20;66.60;;;;;;5013498;28;20052;-76
2023/06/04 11:52:45;;;;;;;3.35;0.80;;;20.30;67.80;;;;;;5016904;28;22271;-76
2023/06/04 11:55:12;;;;;;;3.38;0.60;;;20.30;67.40;;;;;;5018069;28;20044;-75
2023/06/04 11:57:40;;;;;;;2.78;0.60;;;20.30;67.50;;;;;;5014482;28;22193;-76
2023/06/04 12:00:11;;;;;;;4.45;0.80;;;20.40;69.00;;;;;;5016116;28;20069;-76
2023/06/04 12:02:52;;;;;;;2.63;0.53;;;20.30;68.10;;;;;;5019868;28;20052;-77
2023/06/04 12:05:25;;;;;;;3.28;0.50;;;20.40;69.30;;;;;;5005682;28;20319;-76
2023/06/04 12:07:52;;;;;;;;;;;20.40;67.90;;;;;;5025766;28;20056;-77
2023/06/04 12:10:21;;;;;;;4.05;0.60;;;20.40;67.90;;;;;;5003191;28;19928;-77
2023/06/04 12:12:55;;;;;;;3.05;0.50;;;20.50;69.40;;;;;;5035798;28;20037;-75
2023/06/04 12:15:22;;;;;;;2.47;0.60;;;20.50;68.30;;;;;;5030949;28;20084;-76
2023/06/04 12:17:54;;;;;;;2.40;0.60;;;20.50;67.40;;;;;;5009051;28;20141;-77
2023/06/04 12:20:35;;;;;;;4.70;1.13;;;20.60;67.80;;;;;;5014576;28;20143;-76
2023/06/04 12:23:04;;;;;;;2.03;0.60;;;20.70;67.80;;;;;;5019791;28;20060;-76
2023/06/04 12:25:33;;;;;;;1.63;0.57;;;20.70;68.10;;;;;;5029727;28;20051;-77
2023/06/04 12:28:01;;;;;;;2.50;0.73;;;20.80;68.20;;;;;;5022044;28;20045;-75
2023/06/04 12:30:39;;;;;;;3.50;0.70;;;20.90;69.30;;;;;;5002437;28;20048;-74
2023/06/04 12:33:07;;;;;;;1.83;0.50;;;20.90;65.90;;;;;;5014595;28;20040;-79
2023/06/04 12:35:35;;;;;;;3.65;0.95;;;21.10;68.30;;;;;;5014709;28;20203;-79
2023/06/04 12:38:04;;;;;;;2.20;0.55;;;21.20;68.50;;;;;;5026043;28;20534;-79
2023/06/04 12:40:32;;;;;;;1.40;0.63;;;21.30;65.10;;;;;;5001117;28;22412;-79
2023/06/04 12:42:59;;;;;;;2.97;0.70;;;21.40;65.70;;;;;;4997192;28;20237;-79
2023/06/04 12:45:27;;;;;;;2.35;0.70;;;21.40;66.00;;;;;;5028753;28;20056;-79
2023/06/04 12:47:54;;;;;;;2.97;0.82;;;21.50;62.70;;;;;;5011968;28;20127;-77
2023/06/04 12:50:21;;;;;;;2.65;0.38;;;21.60;62.60;;;;;;5010631;28;20056;-78
2023/06/04 12:52:49;;;;;;;3.40;0.60;;;21.70;61.40;;;;;;5009377;28;20440;-77
2023/06/04 12:55:16;;;;;;;3.47;0.60;;;21.90;61.50;;;;;;5008497;28;20048;-77
2023/06/04 12:57:46;;;;;;;3.70;0.50;;;21.90;59.80;;;;;;5007460;28;20851;-78
2023/06/04 13:00:14;;;;;;;1.52;0.40;;;22.10;60.40;;;;;;4999632;28;20759;-77